Time;durP1;ratioP1;P1;durP2;ratioP2;P2;SDS_P1;SDS_P2;PMS_P1;PMS_P2;Temp;Humidity;BMP_temperature;BMP_pressure;BME280_temperature;BME280_humidity;BME280_pressure;Samples;Min_cycle;Max_cycle;Signal;HPM_P1;HPM_P2
2023/12/16 00:01:40;;;;;;;4.63;3.65;;;;;;;;;;5044003;28;20376;-69
2023/12/16 00:04:07;;;;;;;4.68;3.75;;;;;;;;;;5013093;28;20566;-69
2023/12/16 00:06:33;;;;;;;4.95;3.65;;;;;;;;;;4996045;28;20065;-69
2023/12/16 00:08:59;;;;;;;4.80;4.20;;;;;;;;;;5013950;28;20450;-69
2023/12/16 00:11:25;;;;;;;6.47;4.63;;;;;;;;;;4992532;28;20549;-68
2023/12/16 00:13:53;;;;;;;5.28;4.38;;;;;;;;;;5012950;28;20021;-69
2023/12/16 00:16:19;;;;;;;5.15;3.85;;;;;;;;;;5004936;28;20561;-69
2023/12/16 00:18:45;;;;;;;4.93;3.75;;;;;;;;;;5002081;28;20072;-69
2023/12/16 00:21:11;;;;;;;4.72;3.88;;;;;;;;;;5023098;28;20109;-69
2023/12/16 00:23:38;;;;;;;4.72;3.75;;;;;;;;;;5022284;28;20026;-69
2023/12/16 00:26:04;;;;;;;4.43;3.75;;;;;;;;;;4993703;28;20026;-70
2023/12/16 00:28:30;;;;;;;4.63;3.90;;;;;;;;;;5022635;28;20031;-69
2023/12/16 00:30:56;;;;;;;4.80;3.80;;;;;;;;;;5011448;28;20037;-69
2023/12/16 00:33:22;;;;;;;5.63;3.97;;;;;;;;;;5022795;28;20075;-69
2023/12/16 00:35:48;;;;;;;3.97;3.58;;;;;;;;;;4999686;28;20034;-70
2023/12/16 00:38:15;;;;;;;4.30;3.80;;;;;;;;;;5032680;28;20494;-69
2023/12/16 00:40:41;;;;;;;5.43;3.78;;;;;;;;;;5000815;28;20057;-69
2023/12/16 00:43:08;;;;;;;4.50;3.70;;;;;;;;;;5012079;28;20041;-69
2023/12/16 00:45:34;;;;;;;5.30;4.25;;;;;;;;;;5003684;28;20492;-69
2023/12/16 00:48:00;;;;;;;6.57;4.38;;;;;;;;;;5002537;28;20066;-69
2023/12/16 00:50:26;;;;;;;6.40;4.55;;;;;;;;;;5027883;28;20026;-70
2023/12/16 00:52:52;;;;;;;6.15;5.00;;;;;;;;;;5014556;28;20030;-69
2023/12/16 00:55:19;;;;;;;6.22;4.47;;;;;;;;;;5013987;28;20030;-69
2023/12/16 00:57:45;;;;;;;5.57;4.68;;;;;;;;;;5020460;28;20026;-69
2023/12/16 01:00:11;;;;;;;4.95;4.13;;;;;;;;;;4997086;28;20033;-70
2023/12/16 01:02:37;;;;;;;6.10;4.45;;;;;;;;;;4995763;28;20091;-70
2023/12/16 01:05:04;;;;;;;5.82;4.30;;;;;;;;;;4994941;28;20030;-70
2023/12/16 01:07:30;;;;;;;7.05;4.85;;;;;;;;;;5004526;28;20141;-69
2023/12/16 01:09:56;;;;;;;6.78;4.70;;;;;;;;;;5003803;28;20056;-70
2023/12/16 01:12:22;;;;;;;6.32;4.78;;;;;;;;;;5022934;28;20181;-70
2023/12/16 01:14:49;;;;;;;8.23;4.80;;;;;;;;;;5015543;28;20114;-69
2023/12/16 01:17:15;;;;;;;6.38;4.63;;;;;;;;;;5004754;28;20480;-69
2023/12/16 01:19:41;;;;;;;6.00;4.22;;;;;;;;;;5039046;28;20048;-69
2023/12/16 01:22:07;;;;;;;7.05;5.03;;;;;;;;;;5002069;28;20468;-69
2023/12/16 01:24:36;;;;;;;8.48;4.82;;;;;;;;;;5007205;28;20087;-70
2023/12/16 01:27:04;;;;;;;7.07;4.60;;;;;;;;;;5019058;28;20034;-69
2023/12/16 01:29:30;;;;;;;5.95;4.63;;;;;;;;;;5002287;28;20423;-69
2023/12/16 01:31:56;;;;;;;6.63;4.88;;;;;;;;;;5003167;28;20022;-69
2023/12/16 01:34:23;;;;;;;7.47;5.57;;;;;;;;;;4992992;28;20032;-69
2023/12/16 01:36:49;;;;;;;8.57;5.72;;;;;;;;;;5010015;28;20033;-69
2023/12/16 01:39:15;;;;;;;6.05;4.65;;;;;;;;;;5013299;28;20059;-70
2023/12/16 01:41:41;;;;;;;6.63;4.88;;;;;;;;;;5012943;28;20039;-69
2023/12/16 01:44:07;;;;;;;7.57;4.57;;;;;;;;;;5019539;28;20020;-69
2023/12/16 01:46:35;;;;;;;7.38;5.13;;;;;;;;;;5009043;28;20125;-69
2023/12/16 01:49:01;;;;;;;6.97;5.53;;;;;;;;;;4992071;28;20019;-69
2023/12/16 01:51:28;;;;;;;9.10;4.82;;;;;;;;;;5003964;28;20481;-69
2023/12/16 01:53:55;;;;;;;6.90;5.10;;;;;;;;;;5004218;28;20023;-69
2023/12/16 01:56:24;;;;;;;6.85;4.80;;;;;;;;;;5001707;28;20026;-69
2023/12/16 01:58:50;;;;;;;9.13;5.78;;;;;;;;;;5024894;28;20077;-69
2023/12/16 02:01:17;;;;;;;7.60;5.80;;;;;;;;;;5001507;28;20033;-69
2023/12/16 02:03:45;;;;;;;8.90;5.47;;;;;;;;;;5020443;28;20036;-68
2023/12/16 02:06:12;;;;;;;7.40;5.05;;;;;;;;;;5011535;28;20026;-69
2023/12/16 02:08:38;;;;;;;8.43;5.18;;;;;;;;;;5000828;28;20060;-70
2023/12/16 02:11:04;;;;;;;7.93;5.05;;;;;;;;;;4990707;28;20043;-70
2023/12/16 02:13:30;;;;;;;6.22;4.70;;;;;;;;;;5019892;28;20037;-69
2023/12/16 02:15:56;;;;;;;6.82;4.95;;;;;;;;;;4993568;28;20517;-69
2023/12/16 02:18:23;;;;;;;6.13;4.82;;;;;;;;;;5011967;28;20030;-69
2023/12/16 02:20:49;;;;;;;5.38;4.32;;;;;;;;;;5020477;28;20458;-68
2023/12/16 02:23:18;;;;;;;7.50;5.25;;;;;;;;;;5009043;28;20108;-69
2023/12/16 02:25:45;;;;;;;5.95;4.82;;;;;;;;;;4995423;28;20037;-69
2023/12/16 02:28:11;;;;;;;6.07;4.50;;;;;;;;;;5019125;28;20038;-69
2023/12/16 02:30:37;;;;;;;8.27;5.25;;;;;;;;;;5004817;28;20179;-69
2023/12/16 02:33:03;;;;;;;6.07;4.43;;;;;;;;;;5008089;28;20470;-69
2023/12/16 02:35:29;;;;;;;6.65;4.25;;;;;;;;;;4997760;28;20325;-69
2023/12/16 02:37:55;;;;;;;6.53;4.72;;;;;;;;;;5006826;28;20030;-69
2023/12/16 02:40:22;;;;;;;7.38;4.80;;;;;;;;;;5009133;28;20038;-69
2023/12/16 02:42:48;;;;;;;6.88;4.88;;;;;;;;;;4995605;28;20087;-69
2023/12/16 02:45:14;;;;;;;5.80;4.22;;;;;;;;;;5009688;28;20079;-70
2023/12/16 02:47:41;;;;;;;7.40;5.20;;;;;;;;;;5003536;28;20378;-69
2023/12/16 02:50:08;;;;;;;6.72;4.85;;;;;;;;;;4996832;28;20028;-69
2023/12/16 02:52:34;;;;;;;6.03;4.55;;;;;;;;;;4998326;28;20035;-69
2023/12/16 02:55:00;;;;;;;6.32;4.50;;;;;;;;;;4992540;28;20026;-69
2023/12/16 02:57:26;;;;;;;6.22;3.95;;;;;;;;;;5006689;28;20488;-69
2023/12/16 02:59:53;;;;;;;6.57;5.03;;;;;;;;;;5003103;28;20022;-69
2023/12/16 03:02:19;;;;;;;6.72;4.85;;;;;;;;;;5004389;28;20034;-70
2023/12/16 03:04:45;;;;;;;5.00;3.97;;;;;;;;;;4991095;28;20390;-70
2023/12/16 03:07:11;;;;;;;6.30;4.20;;;;;;;;;;5015163;28;20449;-69
2023/12/16 03:09:37;;;;;;;5.43;4.25;;;;;;;;;;5009895;28;20035;-69
2023/12/16 03:12:04;;;;;;;5.78;4.07;;;;;;;;;;5000839;28;20022;-69
2023/12/16 03:14:30;;;;;;;4.97;3.65;;;;;;;;;;5029459;28;20481;-69
2023/12/16 03:16:57;;;;;;;5.28;4.18;;;;;;;;;;5006346;28;20044;-70
2023/12/16 03:19:23;;;;;;;4.97;3.95;;;;;;;;;;5006891;28;20372;-69
2023/12/16 03:21:49;;;;;;;7.80;4.95;;;;;;;;;;5006672;28;20034;-69
2023/12/16 03:24:15;;;;;;;6.55;4.47;;;;;;;;;;5002821;28;20117;-69
2023/12/16 03:26:42;;;;;;;6.10;4.35;;;;;;;;;;4990114;28;20031;-69
2023/12/16 03:29:08;;;;;;;5.60;4.45;;;;;;;;;;5020079;28;20319;-69
2023/12/16 03:31:34;;;;;;;6.95;4.45;;;;;;;;;;5009023;28;20447;-69
2023/12/16 03:34:00;;;;;;;6.82;4.38;;;;;;;;;;5005551;28;20030;-69
2023/12/16 03:36:27;;;;;;;6.40;4.22;;;;;;;;;;5012636;28;20117;-69
2023/12/16 03:38:54;;;;;;;5.63;4.75;;;;;;;;;;4997816;28;20035;-69
2023/12/16 03:41:20;;;;;;;5.97;4.13;;;;;;;;;;5003619;28;20057;-69
2023/12/16 03:43:46;;;;;;;6.22;4.25;;;;;;;;;;5007976;28;20169;-69
2023/12/16 03:46:12;;;;;;;6.60;4.63;;;;;;;;;;4999982;28;20050;-70
2023/12/16 03:48:39;;;;;;;6.15;3.90;;;;;;;;;;4999703;28;20489;-69
2023/12/16 03:51:05;;;;;;;5.43;4.22;;;;;;;;;;5004195;28;20433;-70
2023/12/16 03:53:32;;;;;;;6.10;3.70;;;;;;;;;;5002625;28;20378;-69
2023/12/16 03:55:58;;;;;;;5.60;4.13;;;;;;;;;;5005161;28;20133;-68
2023/12/16 03:58:25;;;;;;;6.45;4.40;;;;;;;;;;4997978;28;20087;-68
2023/12/16 04:00:52;;;;;;;5.65;4.10;;;;;;;;;;5014262;28;20026;-69
2023/12/16 04:03:18;;;;;;;5.57;3.80;;;;;;;;;;5023239;28;20031;-68
2023/12/16 04:05:44;;;;;;;5.80;4.35;;;;;;;;;;5010038;28;20019;-68
2023/12/16 04:08:10;;;;;;;8.07;4.72;;;;;;;;;;5002365;28;20038;-69
2023/12/16 04:10:36;;;;;;;5.88;4.47;;;;;;;;;;4999625;28;20038;-69
2023/12/16 04:13:03;;;;;;;7.82;5.05;;;;;;;;;;4992940;28;20453;-68
2023/12/16 04:15:29;;;;;;;6.50;4.95;;;;;;;;;;5014154;28;20047;-69
2023/12/16 04:17:55;;;;;;;6.85;4.80;;;;;;;;;;5011694;28;20025;-68
2023/12/16 04:20:22;;;;;;;7.53;5.13;;;;;;;;;;5003133;28;20470;-68
2023/12/16 04:22:48;;;;;;;7.15;4.93;;;;;;;;;;5004254;28;20037;-68
2023/12/16 04:25:14;;;;;;;7.65;5.03;;;;;;;;;;4987568;28;20444;-69
2023/12/16 04:27:41;;;;;;;8.50;4.70;;;;;;;;;;5015207;28;20077;-69
2023/12/16 04:30:07;;;;;;;8.23;5.68;;;;;;;;;;5030562;28;20023;-69
2023/12/16 04:32:33;;;;;;;7.65;5.70;;;;;;;;;;4996715;28;20536;-69
2023/12/16 04:35:00;;;;;;;7.38;5.43;;;;;;;;;;5002673;28;20048;-69
2023/12/16 04:37:26;;;;;;;8.10;5.07;;;;;;;;;;5009311;28;20038;-69
2023/12/16 04:39:52;;;;;;;6.22;4.97;;;;;;;;;;5041804;28;20029;-69
2023/12/16 04:42:18;;;;;;;6.68;4.85;;;;;;;;;;5000194;28;20061;-68
2023/12/16 04:44:46;;;;;;;6.05;4.47;;;;;;;;;;5002440;28;20030;-68
2023/12/16 04:47:12;;;;;;;7.28;4.53;;;;;;;;;;5053204;28;20044;-69
2023/12/16 04:49:41;;;;;;;7.80;5.00;;;;;;;;;;5005714;28;20015;-68
2023/12/16 04:52:07;;;;;;;7.20;4.70;;;;;;;;;;5013299;28;20466;-69
2023/12/16 04:54:34;;;;;;;8.05;4.75;;;;;;;;;;5002995;28;20080;-67
2023/12/16 04:57:01;;;;;;;7.88;4.78;;;;;;;;;;4995436;28;20026;-69
2023/12/16 04:59:27;;;;;;;7.13;4.78;;;;;;;;;;5006510;28;20032;-69
2023/12/16 05:01:53;;;;;;;8.82;5.00;;;;;;;;;;5021221;28;20489;-69
2023/12/16 05:04:20;;;;;;;9.30;4.78;;;;;;;;;;5009158;28;20456;-69
2023/12/16 05:06:46;;;;;;;6.05;4.70;;;;;;;;;;5002116;28;20063;-69
2023/12/16 05:09:12;;;;;;;8.68;5.85;;;;;;;;;;5030012;28;20705;-68
2023/12/16 05:11:38;;;;;;;5.88;4.53;;;;;;;;;;5018055;28;20486;-69
2023/12/16 05:14:05;;;;;;;8.98;4.93;;;;;;;;;;5018296;28;20597;-69
2023/12/16 05:16:31;;;;;;;7.10;4.22;;;;;;;;;;5005045;28;20033;-69
2023/12/16 05:19:03;;;;;;;6.75;4.20;;;;;;;;;;5004335;28;20417;-69
2023/12/16 05:21:29;;;;;;;5.63;4.00;;;;;;;;;;4995221;28;20030;-69
2023/12/16 05:23:55;;;;;;;5.10;3.20;;;;;;;;;;4992273;28;20026;-68
2023/12/16 05:26:22;;;;;;;4.90;3.90;;;;;;;;;;4997974;28;20528;-69
2023/12/16 05:28:48;;;;;;;5.25;3.53;;;;;;;;;;5036940;28;20164;-68
2023/12/16 05:31:14;;;;;;;5.38;3.60;;;;;;;;;;5026250;28;20028;-69
2023/12/16 05:33:43;;;;;;;4.25;3.03;;;;;;;;;;5025934;28;20071;-69
2023/12/16 05:36:09;;;;;;;3.83;2.78;;;;;;;;;;4990004;28;20018;-69
2023/12/16 05:38:35;;;;;;;4.43;2.95;;;;;;;;;;4982209;28;20481;-69
2023/12/16 05:41:02;;;;;;;3.33;2.50;;;;;;;;;;5019900;28;20037;-69
2023/12/16 05:43:29;;;;;;;3.83;2.95;;;;;;;;;;5007466;28;20041;-69
2023/12/16 05:45:55;;;;;;;3.38;2.42;;;;;;;;;;5009504;28;20385;-69
2023/12/16 05:48:23;;;;;;;3.35;2.58;;;;;;;;;;5061658;28;20055;-68
2023/12/16 05:50:49;;;;;;;4.28;2.60;;;;;;;;;;5004660;28;20060;-69
2023/12/16 05:53:15;;;;;;;2.97;2.40;;;;;;;;;;5011682;28;20038;-69
2023/12/16 05:55:44;;;;;;;3.03;2.53;;;;;;;;;;4986429;28;20117;-69
2023/12/16 05:58:10;;;;;;;2.90;2.50;;;;;;;;;;4994445;28;20032;-69
2023/12/16 06:00:36;;;;;;;3.10;2.80;;;;;;;;;;5021657;28;20037;-69
2023/12/16 06:03:02;;;;;;;4.15;2.88;;;;;;;;;;5049539;28;20028;-69
2023/12/16 06:05:28;;;;;;;3.75;3.03;;;;;;;;;;5028530;28;20034;-69
2023/12/16 06:07:55;;;;;;;4.38;3.20;;;;;;;;;;5001486;28;20534;-69
2023/12/16 06:10:22;;;;;;;3.90;3.20;;;;;;;;;;5001576;28;20469;-69
2023/12/16 06:12:48;;;;;;;4.65;3.10;;;;;;;;;;5041878;28;20032;-69
2023/12/16 06:15:14;;;;;;;3.90;3.05;;;;;;;;;;5003034;28;20553;-69
2023/12/16 06:17:41;;;;;;;5.45;2.97;;;;;;;;;;5000056;28;20122;-69
2023/12/16 06:20:07;;;;;;;4.05;2.80;;;;;;;;;;5018091;28;20034;-69
2023/12/16 06:22:33;;;;;;;3.30;2.78;;;;;;;;;;5000057;28;20062;-70
2023/12/16 06:25:00;;;;;;;2.80;2.20;;;;;;;;;;5001067;28;20037;-69
2023/12/16 06:27:26;;;;;;;5.38;2.30;;;;;;;;;;4999390;28;20547;-69
2023/12/16 06:29:52;;;;;;;2.70;2.40;;;;;;;;;;4997995;28;20022;-69
2023/12/16 06:32:18;;;;;;;4.28;2.60;;;;;;;;;;4999845;28;20025;-69
2023/12/16 06:34:46;;;;;;;2.38;1.90;;;;;;;;;;4998847;28;20458;-70
2023/12/16 06:37:12;;;;;;;3.20;2.50;;;;;;;;;;4981305;28;20029;-69
2023/12/16 06:39:38;;;;;;;2.47;1.95;;;;;;;;;;5024352;28;20154;-69
2023/12/16 06:42:04;;;;;;;2.92;2.10;;;;;;;;;;5000676;28;20481;-69
2023/12/16 06:44:31;;;;;;;2.35;1.98;;;;;;;;;;5009587;28;20037;-70
2023/12/16 06:46:57;;;;;;;2.78;2.03;;;;;;;;;;5012394;28;20042;-70
2023/12/16 06:49:23;;;;;;;2.40;2.13;;;;;;;;;;5001003;28;20036;-69
2023/12/16 06:51:50;;;;;;;2.33;1.83;;;;;;;;;;5004288;28;20067;-69
2023/12/16 06:54:16;;;;;;;2.30;2.10;;;;;;;;;;5029266;28;20047;-69
2023/12/16 06:56:42;;;;;;;2.35;2.15;;;;;;;;;;5002750;28;20083;-69
2023/12/16 06:59:08;;;;;;;2.80;2.08;;;;;;;;;;5006855;28;20091;-69
2023/12/16 07:01:35;;;;;;;2.85;2.10;;;;;;;;;;5020061;28;20036;-69
2023/12/16 07:04:01;;;;;;;2.53;2.00;;;;;;;;;;5012722;28;20018;-69
2023/12/16 07:06:27;;;;;;;1.80;1.70;;;;;;;;;;5004196;28;20676;-69
2023/12/16 07:08:53;;;;;;;5.07;2.35;;;;;;;;;;5014183;28;20560;-69
2023/12/16 07:11:20;;;;;;;3.25;1.85;;;;;;;;;;4996056;28;20512;-69
2023/12/16 07:13:46;;;;;;;2.55;2.00;;;;;;;;;;5002110;28;20026;-68
2023/12/16 07:16:16;;;;;;;2.50;2.10;;;;;;;;;;4992016;28;20615;-69
2023/12/16 07:18:42;;;;;;;1.90;1.80;;;;;;;;;;5012072;28;20026;-70
2023/12/16 07:21:09;;;;;;;1.73;1.60;;;;;;;;;;4988429;28;20490;-69
2023/12/16 07:23:35;;;;;;;2.20;1.83;;;;;;;;;;5008588;28;20056;-69
2023/12/16 07:26:01;;;;;;;2.85;2.03;;;;;;;;;;5044026;28;20027;-69
2023/12/16 07:28:31;;;;;;;1.98;1.83;;;;;;;;;;5035865;28;20083;-69
2023/12/16 07:31:00;;;;;;;2.17;1.98;;;;;;;;;;5014909;28;20480;-70
2023/12/16 07:33:26;;;;;;;2.03;1.73;;;;;;;;;;5001623;28;20497;-69
2023/12/16 07:35:52;;;;;;;2.45;2.22;;;;;;;;;;5007758;28;20573;-69
2023/12/16 07:38:19;;;;;;;2.13;1.92;;;;;;;;;;5012181;28;20075;-69
2023/12/16 07:40:45;;;;;;;2.40;1.77;;;;;;;;;;5021530;28;20030;-70
2023/12/16 07:43:14;;;;;;;2.15;1.90;;;;;;;;;;5021618;28;20048;-69
2023/12/16 07:45:40;;;;;;;2.10;1.88;;;;;;;;;;4995048;28;20133;-69
2023/12/16 07:48:06;;;;;;;2.17;1.90;;;;;;;;;;4997245;28;20513;-70
2023/12/16 07:50:33;;;;;;;2.47;1.92;;;;;;;;;;5002550;28;20054;-70
2023/12/16 07:52:59;;;;;;;1.90;1.70;;;;;;;;;;5006153;28;20031;-70
2023/12/16 07:55:27;;;;;;;2.00;1.75;;;;;;;;;;5009351;28;20498;-70
2023/12/16 07:57:54;;;;;;;2.00;1.80;;;;;;;;;;4997808;28;20034;-70
2023/12/16 08:00:20;;;;;;;1.85;1.70;;;;;;;;;;4999705;28;20034;-69
2023/12/16 08:02:46;;;;;;;2.15;1.80;;;;;;;;;;4990815;28;20549;-70
2023/12/16 08:05:12;;;;;;;1.70;1.60;;;;;;;;;;4996080;28;20413;-70
2023/12/16 08:07:38;;;;;;;2.60;2.10;;;;;;;;;;4997825;28;20044;-70
2023/12/16 08:10:05;;;;;;;2.05;1.90;;;;;;;;;;5000851;28;20030;-70
2023/12/16 08:12:31;;;;;;;2.15;1.92;;;;;;;;;;5010038;28;20391;-69
2023/12/16 08:14:57;;;;;;;2.00;1.80;;;;;;;;;;5015123;28;20432;-69
2023/12/16 08:17:23;;;;;;;2.40;2.10;;;;;;;;;;5003299;28;20049;-70
2023/12/16 08:19:51;;;;;;;2.95;2.05;;;;;;;;;;5031297;28;20557;-70
2023/12/16 08:22:17;;;;;;;2.20;2.00;;;;;;;;;;5011345;28;20135;-70
2023/12/16 08:24:44;;;;;;;2.40;2.05;;;;;;;;;;5023804;28;20038;-69
2023/12/16 08:27:10;;;;;;;2.40;2.10;;;;;;;;;;5038428;28;20511;-70
2023/12/16 08:29:37;;;;;;;3.63;2.00;;;;;;;;;;5002733;28;20031;-70
2023/12/16 08:32:04;;;;;;;3.97;2.30;;;;;;;;;;4982106;28;20030;-69
2023/12/16 08:34:31;;;;;;;2.10;1.92;;;;;;;;;;4993795;28;20113;-70
2023/12/16 08:36:57;;;;;;;2.10;1.77;;;;;;;;;;4994221;28;20490;-70
2023/12/16 08:39:23;;;;;;;2.60;1.98;;;;;;;;;;4987628;28;20389;-71
2023/12/16 08:41:49;;;;;;;1.92;1.77;;;;;;;;;;4990007;28;20591;-71
2023/12/16 08:44:16;;;;;;;1.85;1.75;;;;;;;;;;4998375;28;20034;-70
2023/12/16 08:46:42;;;;;;;2.35;1.83;;;;;;;;;;4997580;28;20061;-70
2023/12/16 08:49:09;;;;;;;2.13;1.92;;;;;;;;;;4988804;28;20402;-70
2023/12/16 08:51:35;;;;;;;2.75;1.80;;;;;;;;;;4992087;28;20050;-70
2023/12/16 08:54:01;;;;;;;1.88;1.67;;;;;;;;;;5002390;28;20053;-71
2023/12/16 08:56:27;;;;;;;1.85;1.70;;;;;;;;;;5001254;28;20033;-70
2023/12/16 08:58:53;;;;;;;1.80;1.70;;;;;;;;;;4996600;28;20474;-70
2023/12/16 09:01:19;;;;;;;1.60;1.50;;;;;;;;;;4995544;28;20085;-70
2023/12/16 09:03:46;;;;;;;2.20;1.95;;;;;;;;;;4999171;28;20322;-69
2023/12/16 09:06:12;;;;;;;2.00;1.80;;;;;;;;;;4997528;28;20044;-70
2023/12/16 09:08:39;;;;;;;2.15;1.88;;;;;;;;;;5000428;28;20014;-70
2023/12/16 09:11:05;;;;;;;2.10;1.90;;;;;;;;;;5019607;27;20489;-69
2023/12/16 09:13:31;;;;;;;2.83;1.98;;;;;;;;;;4990453;28;20053;-70
2023/12/16 09:15:58;;;;;;;2.97;2.15;;;;;;;;;;4989227;28;20464;-70
2023/12/16 09:18:27;;;;;;;2.58;1.95;;;;;;;;;;4995184;28;20072;-70
2023/12/16 09:20:53;;;;;;;2.20;2.00;;;;;;;;;;5004443;28;20033;-69
2023/12/16 09:23:19;;;;;;;2.10;1.90;;;;;;;;;;4992129;28;20459;-70
2023/12/16 09:25:45;;;;;;;2.00;1.80;;;;;;;;;;4996037;28;20034;-71
2023/12/16 09:28:12;;;;;;;1.92;1.75;;;;;;;;;;4994190;28;20052;-70
2023/12/16 09:30:38;;;;;;;1.67;1.58;;;;;;;;;;4997340;28;20025;-70
2023/12/16 09:33:05;;;;;;;1.75;1.65;;;;;;;;;;4993565;28;20034;-70
2023/12/16 09:35:31;;;;;;;2.13;1.90;;;;;;;;;;4995630;28;20022;-70
2023/12/16 09:37:57;;;;;;;1.83;1.73;;;;;;;;;;4997751;28;20203;-70
2023/12/16 09:40:24;;;;;;;2.00;1.80;;;;;;;;;;5002919;28;20061;-70
2023/12/16 09:42:53;;;;;;;1.95;1.75;;;;;;;;;;4993062;28;20033;-70
2023/12/16 09:45:20;;;;;;;1.70;1.60;;;;;;;;;;4996348;28;20026;-70
2023/12/16 09:47:47;;;;;;;1.55;1.45;;;;;;;;;;4991326;28;20207;-70
2023/12/16 09:50:14;;;;;;;2.17;1.58;;;;;;;;;;4992508;28;20035;-70
2023/12/16 09:52:40;;;;;;;1.70;1.60;;;;;;;;;;4993298;28;20030;-70
2023/12/16 09:55:07;;;;;;;1.80;1.70;;;;;;;;;;4994137;28;20030;-70
2023/12/16 09:57:35;;;;;;;1.70;1.60;;;;;;;;;;4995668;28;20026;-70
2023/12/16 10:00:02;;;;;;;1.73;1.63;;;;;;;;;;4999332;28;20079;-69
2023/12/16 10:02:29;;;;;;;1.70;1.60;;;;;;;;;;4992139;28;20030;-68
2023/12/16 10:04:59;;;;;;;2.13;1.92;;;;;;;;;;4998442;28;20030;-70
2023/12/16 10:07:26;;;;;;;5.57;1.70;;;;;;;;;;4995372;28;20034;-68
2023/12/16 10:09:52;;;;;;;1.90;1.70;;;;;;;;;;5003605;28;20033;-69
2023/12/16 10:12:22;;;;;;;1.75;1.65;;;;;;;;;;4998073;28;20030;-69
2023/12/16 10:14:49;;;;;;;1.85;1.75;;;;;;;;;;4998246;28;20043;-69
2023/12/16 10:17:19;;;;;;;1.83;1.73;;;;;;;;;;4999335;28;20040;-68
2023/12/16 10:19:46;;;;;;;1.70;1.60;;;;;;;;;;5003313;28;20366;-68
2023/12/16 10:22:13;;;;;;;3.92;1.73;;;;;;;;;;5000634;28;20146;-69
2023/12/16 10:24:41;;;;;;;2.50;1.75;;;;;;;;;;4993652;28;20500;-70
2023/12/16 10:27:07;;;;;;;2.05;1.83;;;;;;;;;;5004517;28;20029;-69
2023/12/16 10:29:34;;;;;;;2.30;2.10;;;;;;;;;;4996940;28;20158;-70
2023/12/16 10:32:01;;;;;;;4.78;2.03;;;;;;;;;;4995548;28;20034;-69
2023/12/16 10:34:33;;;;;;;1.50;1.40;;;;;;;;;;4994499;28;20037;-69
2023/12/16 10:37:06;;;;;;;2.15;1.95;;;;;;;;;;5005245;28;20037;-69
2023/12/16 10:39:33;;;;;;;1.80;1.70;;;;;;;;;;4991664;28;20022;-69
2023/12/16 10:41:59;;;;;;;2.00;1.73;;;;;;;;;;4991818;28;20030;-70
2023/12/16 10:44:26;;;;;;;1.75;1.60;;;;;;;;;;5012687;28;20101;-69
2023/12/16 10:46:54;;;;;;;1.90;1.80;;;;;;;;;;5004178;28;20042;-69
2023/12/16 10:49:31;;;;;;;1.98;1.77;;;;;;;;;;5000138;28;20029;-69
2023/12/16 10:52:09;;;;;;;2.17;1.90;;;;;;;;;;5004452;28;20061;-69
2023/12/16 10:54:45;;;;;;;1.92;1.83;;;;;;;;;;5007466;28;20343;-71
2023/12/16 10:57:14;;;;;;;2.25;1.70;;;;;;;;;;5001462;28;20509;-69
2023/12/16 10:59:43;;;;;;;2.20;2.00;;;;;;;;;;4992413;28;20466;-68
2023/12/16 11:02:26;;;;;;;2.45;2.10;;;;;;;;;;4996557;28;20401;-69
2023/12/16 11:04:57;;;;;;;2.10;1.90;;;;;;;;;;4991244;28;20506;-70
2023/12/16 11:07:26;;;;;;;1.73;1.63;;;;;;;;;;5003219;28;20033;-68
2023/12/16 11:09:52;;;;;;;2.00;1.80;;;;;;;;;;4992984;28;20018;-69
2023/12/16 11:12:19;;;;;;;3.15;2.63;;;;;;;;;;4990746;28;20041;-68
2023/12/16 11:14:46;;;;;;;3.58;2.65;;;;;;;;;;4994525;28;20386;-69
2023/12/16 11:17:16;;;;;;;2.88;2.40;;;;;;;;;;4997774;28;20044;-70
2023/12/16 11:19:47;;;;;;;3.72;2.58;;;;;;;;;;5000719;28;20034;-69
2023/12/16 11:22:21;;;;;;;4.18;3.78;;;;;;;;;;4994570;28;20037;-69
2023/12/16 11:24:47;;;;;;;2.88;2.45;;;;;;;;;;4998489;28;20030;-69
2023/12/16 11:27:16;;;;;;;2.25;2.00;;;;;;;;;;5000135;28;20059;-69
2023/12/16 11:29:42;;;;;;;2.75;2.42;;;;;;;;;;4992113;28;20056;-69
2023/12/16 11:32:10;;;;;;;1.90;1.80;;;;;;;;;;4997130;28;20030;-69
2023/12/16 11:34:39;;;;;;;2.08;1.88;;;;;;;;;;5001519;28;20065;-69
2023/12/16 11:37:05;;;;;;;3.17;2.25;;;;;;;;;;4988777;28;20054;-69
2023/12/16 11:39:38;;;;;;;1.90;1.80;;;;;;;;;;4993364;28;20540;-69
2023/12/16 11:42:05;;;;;;;3.03;2.03;;;;;;;;;;4999902;28;20561;-69
2023/12/16 11:44:48;;;;;;;1.67;1.55;;;;;;;;;;4996334;28;20022;-69
2023/12/16 11:47:27;;;;;;;1.80;1.70;;;;;;;;;;4993623;28;20034;-69
2023/12/16 11:49:57;;;;;;;2.42;1.85;;;;;;;;;;5006371;28;20035;-69
2023/12/16 11:52:24;;;;;;;1.77;1.67;;;;;;;;;;4998103;28;20034;-70
2023/12/16 11:54:54;;;;;;;1.50;1.40;;;;;;;;;;5041096;28;20052;-70
2023/12/16 11:57:21;;;;;;;1.70;1.60;;;;;;;;;;5002445;28;20022;-69
2023/12/16 11:59:47;;;;;;;2.35;1.95;;;;;;;;;;5001850;28;20482;-70
2023/12/16 12:02:14;;;;;;;1.95;1.75;;;;;;;;;;5002893;28;20034;-70
2023/12/16 12:04:41;;;;;;;1.70;1.60;;;;;;;;;;5005241;28;20033;-70
2023/12/16 12:07:07;;;;;;;2.67;1.90;;;;;;;;;;4988493;28;20053;-69
2023/12/16 12:09:33;;;;;;;2.40;2.00;;;;;;;;;;5024978;27;20022;-68
2023/12/16 12:12:02;;;;;;;2.42;1.70;;;;;;;;;;4994471;28;20497;-69
2023/12/16 12:14:28;;;;;;;1.65;1.55;;;;;;;;;;4997790;28;20086;-69
2023/12/16 12:16:54;;;;;;;2.15;1.88;;;;;;;;;;4995652;28;20034;-69
2023/12/16 12:19:21;;;;;;;1.95;1.80;;;;;;;;;;5003986;28;20036;-69
2023/12/16 12:21:47;;;;;;;2.08;1.88;;;;;;;;;;4992793;28;20034;-72
2023/12/16 12:24:13;;;;;;;2.17;1.90;;;;;;;;;;5000330;28;20030;-69
2023/12/16 12:26:41;;;;;;;1.83;1.67;;;;;;;;;;4998881;28;21352;-69
2023/12/16 12:29:08;;;;;;;1.90;1.77;;;;;;;;;;4992384;28;20428;-68
2023/12/16 12:31:42;;;;;;;2.20;2.00;;;;;;;;;;4998703;28;20513;-69
2023/12/16 12:34:09;;;;;;;2.88;1.80;;;;;;;;;;4989027;28;20034;-69
2023/12/16 12:36:35;;;;;;;2.10;1.90;;;;;;;;;;4996639;28;20030;-69
2023/12/16 12:39:01;;;;;;;2.65;2.15;;;;;;;;;;4995332;28;20030;-69
2023/12/16 12:41:30;;;;;;;1.98;1.77;;;;;;;;;;4998048;28;20100;-69
2023/12/16 12:43:57;;;;;;;3.13;2.10;;;;;;;;;;5010232;28;20129;-68
2023/12/16 12:46:23;;;;;;;2.15;1.85;;;;;;;;;;4999148;28;20530;-68
2023/12/16 12:48:56;;;;;;;2.70;2.00;;;;;;;;;;4992357;28;20460;-70
2023/12/16 12:51:23;;;;;;;2.28;2.08;;;;;;;;;;5003685;28;20034;-70
2023/12/16 12:53:56;;;;;;;3.38;2.00;;;;;;;;;;5004492;28;20387;-70
2023/12/16 12:56:22;;;;;;;3.20;1.83;;;;;;;;;;5003926;28;20044;-70
2023/12/16 12:58:49;;;;;;;2.63;2.00;;;;;;;;;;5004236;28;20105;-71
2023/12/16 13:01:15;;;;;;;1.88;1.70;;;;;;;;;;5012243;28;20087;-71
2023/12/16 13:03:42;;;;;;;2.10;1.83;;;;;;;;;;5010132;28;20034;-70
2023/12/16 13:06:09;;;;;;;2.35;1.95;;;;;;;;;;5010902;28;20516;-71
2023/12/16 13:08:35;;;;;;;2.47;2.00;;;;;;;;;;4996774;28;20034;-70
2023/12/16 13:11:01;;;;;;;3.60;2.33;;;;;;;;;;5002631;28;20545;-71
2023/12/16 13:13:29;;;;;;;2.05;1.85;;;;;;;;;;5013537;28;20038;-70
2023/12/16 13:15:56;;;;;;;2.33;1.75;;;;;;;;;;5019532;28;20298;-71
2023/12/16 13:18:22;;;;;;;2.20;1.88;;;;;;;;;;5007493;28;20493;-71
2023/12/16 13:20:49;;;;;;;2.65;2.00;;;;;;;;;;5019287;28;20025;-71
2023/12/16 13:23:15;;;;;;;2.35;2.15;;;;;;;;;;5001367;28;20030;-69
2023/12/16 13:25:41;;;;;;;2.50;1.65;;;;;;;;;;5008195;28;20030;-69
2023/12/16 13:28:07;;;;;;;2.42;2.00;;;;;;;;;;5006190;28;20064;-69
2023/12/16 13:30:33;;;;;;;2.00;1.80;;;;;;;;;;5001772;28;20033;-69
2023/12/16 13:33:00;;;;;;;2.30;1.85;;;;;;;;;;4999252;28;20726;-70
2023/12/16 13:35:26;;;;;;;3.13;2.88;;;;;;;;;;4998876;28;20026;-68
2023/12/16 13:37:52;;;;;;;2.40;1.90;;;;;;;;;;4998327;28;20057;-69
2023/12/16 13:40:18;;;;;;;2.90;2.63;;;;;;;;;;4992765;28;20037;-70
2023/12/16 13:42:45;;;;;;;2.08;1.88;;;;;;;;;;4989936;28;20057;-69
2023/12/16 13:45:12;;;;;;;2.55;2.10;;;;;;;;;;4987558;28;20399;-69
2023/12/16 13:47:38;;;;;;;2.08;1.90;;;;;;;;;;4987985;28;20138;-69
2023/12/16 13:50:04;;;;;;;2.42;2.00;;;;;;;;;;4992515;28;20512;-70
2023/12/16 13:52:31;;;;;;;2.65;2.42;;;;;;;;;;4990035;28;20034;-69
2023/12/16 13:54:57;;;;;;;2.17;1.98;;;;;;;;;;4999898;28;20113;-69
2023/12/16 13:57:23;;;;;;;3.10;2.58;;;;;;;;;;5001218;28;20600;-69
2023/12/16 13:59:49;;;;;;;2.50;2.28;;;;;;;;;;5003843;28;20060;-69
2023/12/16 14:02:15;;;;;;;2.55;2.10;;;;;;;;;;5012362;28;20057;-69
2023/12/16 14:04:43;;;;;;;2.00;1.80;;;;;;;;;;5002351;28;20022;-69
2023/12/16 14:07:13;;;;;;;2.25;2.00;;;;;;;;;;4995229;28;20026;-69
2023/12/16 14:09:39;;;;;;;3.10;2.20;;;;;;;;;;5001382;28;20026;-69
2023/12/16 14:12:05;;;;;;;3.10;2.00;;;;;;;;;;4989579;28;20026;-73
2023/12/16 14:14:32;;;;;;;2.05;1.88;;;;;;;;;;4999018;28;20363;-68
2023/12/16 14:16:58;;;;;;;3.42;2.20;;;;;;;;;;4997081;28;20405;-69
2023/12/16 14:19:24;;;;;;;5.22;2.67;;;;;;;;;;4994616;28;20023;-69
2023/12/16 14:21:50;;;;;;;2.28;1.95;;;;;;;;;;4996888;28;20042;-69
2023/12/16 14:24:17;;;;;;;2.28;2.00;;;;;;;;;;4998055;28;20034;-69
2023/12/16 14:26:43;;;;;;;3.25;2.30;;;;;;;;;;5000178;28;20037;-69
2023/12/16 14:29:09;;;;;;;3.85;2.72;;;;;;;;;;4994678;28;20056;-69
2023/12/16 14:31:35;;;;;;;3.70;2.60;;;;;;;;;;5003989;28;20029;-69
2023/12/16 14:34:02;;;;;;;3.22;2.17;;;;;;;;;;4997789;28;20027;-70
2023/12/16 14:36:30;;;;;;;3.05;2.10;;;;;;;;;;5012470;28;20034;-69
2023/12/16 14:38:56;;;;;;;2.70;2.38;;;;;;;;;;4992258;28;20549;-70
2023/12/16 14:41:22;;;;;;;3.40;2.60;;;;;;;;;;4994879;28;20036;-69